createdAt,value
2022-08-11T00:02:28.594Z,99435.03
2022-08-11T00:05:18.541Z,99422.09
2022-08-11T00:08:05.534Z,99413.59
2022-08-11T00:10:55.506Z,99436.91
2022-08-11T00:13:46.509Z,99416.31
2022-08-11T00:16:33.308Z,99410.31
2022-08-11T00:20:13.923Z,99406.13
2022-08-11T00:22:30.350Z,99407.09
2022-08-11T00:25:21.528Z,99415.75
2022-08-11T00:28:27.216Z,99441.75
2022-08-11T00:31:33.990Z,99433.19
2022-08-11T00:34:23.530Z,99444.34
2022-08-11T00:37:16.945Z,99441.84
2022-08-11T00:40:10.098Z,99430.72
2022-08-11T00:43:21.121Z,99442.91
2022-08-11T00:46:16.779Z,99449.91
2022-08-11T00:49:19.542Z,99449.00
2022-08-11T00:52:29.605Z,99405.16
2022-08-11T00:55:40.693Z,99443.16
2022-08-11T00:59:35.089Z,99435.41
2022-08-11T01:02:59.591Z,99450.13
2022-08-11T01:05:56.331Z,99413.91
2022-08-11T01:09:07.592Z,99445.97
2022-08-11T01:11:57.797Z,99444.22
2022-08-11T01:15:15.070Z,99453.81
2022-08-11T01:18:28.402Z,99441.69
2022-08-11T01:21:24.033Z,99446.09
2022-08-11T01:24:44.689Z,99454.88
2022-08-11T01:28:07.493Z,99454.06
2022-08-11T01:31:18.367Z,99450.63
2022-08-11T01:34:26.385Z,99452.34
2022-08-11T01:37:31.553Z,99448.94
2022-08-11T01:40:53.151Z,99437.69
2022-08-11T01:44:37.435Z,99405.84
2022-08-11T01:47:53.336Z,99438.63
2022-08-11T01:51:03.327Z,99439.56
2022-08-11T01:54:13.015Z,99417.19
2022-08-11T01:57:38.423Z,99450.88
2022-08-11T02:00:30.415Z,99418.97
2022-08-11T02:03:44.568Z,99449.16
2022-08-11T02:06:56.342Z,99450.94
2022-08-11T02:10:35.338Z,99423.38
2022-08-11T02:13:46.151Z,99420.81
2022-08-11T02:16:50.974Z,99457.97
2022-08-11T02:20:13.499Z,99447.56
2022-08-11T02:24:05.084Z,99447.56
2022-08-11T02:27:07.633Z,99426.97
2022-08-11T02:30:07.193Z,99442.50
2022-08-11T02:33:23.250Z,99434.81
2022-08-11T02:36:23.715Z,99437.31
2022-08-11T02:39:14.800Z,99413.19
2022-08-11T02:42:32.587Z,99408.09
2022-08-11T02:45:47.251Z,99404.63
2022-08-11T02:49:05.302Z,99376.09
2022-08-11T02:52:22.858Z,99402.88
2022-08-11T02:55:56.461Z,99436.59
2022-08-11T02:58:44.230Z,99409.84
2022-08-11T03:01:45.629Z,99415.03
2022-08-11T03:04:48.127Z,99418.50
2022-08-11T03:07:47.897Z,99434.06
2022-08-11T03:10:44.147Z,99437.53
2022-08-11T03:13:53.410Z,99399.56
2022-08-11T03:16:58.410Z,99406.47
2022-08-11T03:19:44.768Z,99438.44
2022-08-11T03:22:48.506Z,99419.47
2022-08-11T03:26:05.546Z,99442.78
2022-08-11T03:28:56.950Z,99412.59
2022-08-11T03:31:57.963Z,99446.28
2022-08-11T03:34:46.278Z,99415.22
2022-08-11T03:37:50.518Z,99432.53
2022-08-11T03:40:58.626Z,99456.72
2022-08-11T03:43:58.284Z,99438.59
2022-08-11T03:47:09.125Z,99449.81
2022-08-11T03:50:17.215Z,99449.81
2022-08-11T03:53:29.512Z,99461.91
2022-08-11T03:56:53.463Z,99458.47
2022-08-11T04:00:14.755Z,99441.22
2022-08-11T04:03:31.357Z,99458.53
2022-08-11T04:06:36.819Z,99458.53
2022-08-11T04:10:00.758Z,99460.25
2022-08-11T04:13:08.489Z,99459.38
2022-08-11T04:16:16.577Z,99454.22
2022-08-11T04:19:21.366Z,99461.97
2022-08-11T04:22:37.501Z,99462.00
2022-08-11T04:25:58.266Z,99458.50
2022-08-11T04:29:12.213Z,99441.22
2022-08-11T04:32:18.163Z,99464.56
2022-08-11T04:35:28.431Z,99461.97
2022-08-11T04:38:36.700Z,99461.97
2022-08-11T04:42:22.524Z,99455.91
2022-08-11T04:45:45.807Z,99432.59
2022-08-11T04:49:33.647Z,99464.50
2022-08-11T04:52:57.688Z,99461.91
2022-08-11T04:56:24.455Z,99425.56
2022-08-11T04:59:32.592Z,99461.78
2022-08-11T05:02:22.123Z,99462.50
2022-08-11T05:05:56.372Z,99435.47
2022-08-11T05:09:23.833Z,99434.22
2022-08-11T05:12:36.174Z,99432.44
2022-08-11T05:16:04.519Z,99444.50
2022-08-11T05:19:11.829Z,99462.97
2022-08-11T05:22:24.184Z,99464.75
2022-08-11T05:26:45.212Z,99459.56
2022-08-11T05:29:20.699Z,99452.97
2022-08-11T05:32:29.391Z,99471.38
2022-08-11T05:36:00.217Z,99449.69
2022-08-11T05:38:48.482Z,99444.75
2022-08-11T05:41:53.875Z,99453.50
2022-08-11T05:44:59.128Z,99453.41
2022-08-11T05:48:08.449Z,99462.72
2022-08-11T05:51:16.618Z,99479.41
2022-08-11T05:54:29.160Z,99462.22
2022-08-11T05:57:48.476Z,99451.75
2022-08-11T06:00:29.399Z,99464.25
2022-08-11T06:03:30.649Z,99451.41
2022-08-11T06:06:17.113Z,99479.88
2022-08-11T06:09:03.629Z,99458.34
2022-08-11T06:11:50.739Z,99456.53
2022-08-11T06:14:43.238Z,99475.59
2022-08-11T06:17:38.814Z,99465.03
2022-08-11T06:20:26.394Z,99463.06
2022-08-11T06:23:15.374Z,99455.09
2022-08-11T06:26:02.407Z,99452.34
2022-08-11T06:28:49.270Z,99456.13
2022-08-11T06:31:36.438Z,99478.25
2022-08-11T06:34:34.087Z,99480.28
2022-08-11T06:37:43.449Z,99478.16
2022-08-11T06:41:10.876Z,99488.09
2022-08-11T06:44:13.038Z,99475.22
2022-08-11T06:47:11.386Z,99458.97
2022-08-11T06:50:19.130Z,99457.78
2022-08-11T06:53:09.952Z,99442.38
2022-08-11T06:56:18.229Z,99445.13
2022-08-11T06:59:23.594Z,99471.63
2022-08-11T07:02:15.459Z,99477.72
2022-08-11T07:05:08.351Z,99476.66
2022-08-11T07:08:35.811Z,99481.16
2022-08-11T07:12:12.522Z,99470.22
2022-08-11T07:15:22.190Z,99458.25
2022-08-11T07:18:30.890Z,99451.66
2022-08-11T07:22:03.087Z,99450.00
2022-08-11T07:25:32.869Z,99472.75
2022-08-11T07:28:43.412Z,99473.06
2022-08-11T07:31:32.879Z,99471.06
2022-08-11T07:34:32.643Z,99453.69
2022-08-11T07:37:20.789Z,99451.31
2022-08-11T07:40:07.846Z,99431.41
2022-08-11T07:42:57.042Z,99450.97
2022-08-11T07:46:05.621Z,99440.38
2022-08-11T07:49:11.980Z,99438.34
2022-08-11T07:52:17.529Z,99452.44
2022-08-11T07:55:14.258Z,99442.53
2022-08-11T07:58:20.446Z,99441.00
2022-08-11T08:01:25.985Z,99437.22
2022-08-11T08:04:38.288Z,99404.09
2022-08-11T08:07:43.302Z,99418.75
2022-08-11T08:10:50.207Z,99423.19
2022-08-11T08:13:56.474Z,99429.53
2022-08-11T08:17:01.861Z,99423.59
2022-08-11T08:19:49.170Z,99445.75
2022-08-11T08:22:39.080Z,99409.34
2022-08-11T08:25:28.688Z,99430.09
2022-08-11T08:28:17.638Z,99450.09
2022-08-11T08:31:04.663Z,99428.69
2022-08-11T08:33:51.992Z,99420.94
2022-08-11T08:36:42.566Z,99415.38
2022-08-11T08:39:29.096Z,99434.38
2022-08-11T08:42:25.184Z,99441.09
2022-08-11T08:45:18.493Z,99447.13
2022-08-11T08:48:16.843Z,99440.44
2022-08-11T08:51:29.277Z,99436.22
2022-08-11T08:54:38.083Z,99437.41
2022-08-11T08:57:28.923Z,99436.50
2022-08-11T09:00:20.852Z,99380.44
2022-08-11T09:03:38.240Z,99412.69
2022-08-11T09:06:17.643Z,99407.53
2022-08-11T09:09:04.936Z,99393.94
2022-08-11T09:11:55.620Z,99428.47
2022-08-11T09:15:00.784Z,99413.09
2022-08-11T09:17:50.481Z,99423.72
2022-08-11T09:20:38.541Z,99401.97
2022-08-11T09:27:03.903Z,99394.19
2022-08-11T09:29:51.595Z,99409.84
2022-08-11T09:32:40.490Z,99437.84
2022-08-11T09:35:28.770Z,99431.81
2022-08-11T09:38:35.892Z,99395.44
2022-08-11T09:41:25.603Z,99401.56
2022-08-11T09:44:32.543Z,99407.66
2022-08-11T09:47:29.461Z,99424.19
2022-08-11T09:50:17.041Z,99433.28
2022-08-11T09:53:34.804Z,99396.69
2022-08-11T09:56:36.369Z,99415.06
2022-08-11T09:59:23.962Z,99402.28
2022-08-11T10:02:11.307Z,99391.34
2022-08-11T10:05:18.791Z,99380.94
2022-08-11T10:08:07.214Z,99347.16
2022-08-11T10:10:55.296Z,99374.34
2022-08-11T10:14:33.923Z,99372.34
2022-08-11T10:17:10.496Z,99348.34
2022-08-11T10:20:04.742Z,99349.31
2022-08-11T10:23:10.723Z,99372.72
2022-08-11T10:26:24.310Z,99371.31
2022-08-11T10:29:36.819Z,99373.38
2022-08-11T10:32:58.968Z,99338.94
2022-08-11T10:35:46.160Z,99331.16
2022-08-11T10:38:33.996Z,99370.91
2022-08-11T10:42:02.767Z,99357.81
2022-08-11T10:44:50.595Z,99385.88
2022-08-11T10:47:38.343Z,99350.19
2022-08-11T10:50:52.640Z,99353.66
2022-08-11T10:54:00.908Z,99370.84
2022-08-11T10:57:05.975Z,99329.91
2022-08-11T10:59:54.998Z,99311.28
2022-08-11T11:02:43.266Z,99342.22
2022-08-11T11:05:31.067Z,99317.66
2022-08-11T11:08:42.861Z,99331.63
2022-08-11T11:11:53.631Z,99327.59
2022-08-11T11:15:01.424Z,99351.22
2022-08-11T11:18:01.926Z,99321.63
2022-08-11T11:21:00.100Z,99347.38
2022-08-11T11:23:56.103Z,99338.03
2022-08-11T11:26:57.009Z,99289.44
2022-08-11T11:29:57.325Z,99337.59
2022-08-11T11:32:58.512Z,99308.66
2022-08-11T11:36:03.209Z,99337.63
2022-08-11T11:38:50.275Z,99294.72
2022-08-11T11:41:37.911Z,99326.78
2022-08-11T11:44:25.588Z,99273.97
2022-08-11T11:47:13.676Z,99321.34
2022-08-11T11:50:00.407Z,99300.16
2022-08-11T11:52:46.733Z,99300.16
2022-08-11T11:55:34.111Z,99292.28
2022-08-11T11:58:40.038Z,99291.44
2022-08-11T12:01:27.157Z,99294.09
2022-08-11T12:04:16.141Z,99305.47
2022-08-11T12:07:21.471Z,99301.19
2022-08-11T12:10:08.883Z,99290.53
2022-08-11T12:13:14.334Z,99275.59
2022-08-11T12:16:34.806Z,99280.22
2022-08-11T12:19:14.410Z,99260.38
2022-08-11T12:22:19.404Z,99291.72
2022-08-11T12:25:25.277Z,99274.84
2022-08-11T12:28:11.642Z,99276.66
2022-08-11T12:30:58.583Z,99270.50
2022-08-11T12:33:47.107Z,99277.66
2022-08-11T12:36:36.806Z,99273.91
2022-08-11T12:40:16.264Z,99278.13
2022-08-11T12:43:21.120Z,99231.97
2022-08-11T12:46:14.265Z,99256.94
2022-08-11T12:49:28.579Z,99238.81
2022-08-11T12:52:22.185Z,99248.94
2022-08-11T12:55:13.830Z,99228.00
2022-08-11T12:58:17.161Z,99227.03
2022-08-11T13:01:22.453Z,99221.72
2022-08-11T13:04:28.263Z,99204.97
2022-08-11T13:07:15.802Z,99243.44
2022-08-11T13:10:05.497Z,99222.13
2022-08-11T13:12:52.106Z,99228.31
2022-08-11T13:15:38.841Z,99200.03
2022-08-11T13:18:27.645Z,99210.84
2022-08-11T13:21:20.101Z,99204.03
2022-08-11T13:24:07.700Z,99201.78
2022-08-11T13:26:53.926Z,99183.09
2022-08-11T13:29:42.997Z,99211.56
2022-08-11T13:32:29.657Z,99204.28
2022-08-11T13:35:18.026Z,99222.50
2022-08-11T13:38:27.109Z,99213.28
2022-08-11T13:41:31.178Z,99182.78
2022-08-11T13:44:24.806Z,99175.41
2022-08-11T13:47:14.317Z,99197.81
2022-08-11T13:50:01.551Z,99175.09
2022-08-11T13:52:53.174Z,99144.25
2022-08-11T13:55:51.743Z,99173.59
2022-08-11T13:58:40.746Z,99182.09
2022-08-11T14:02:22.608Z,99194.47
2022-08-11T14:04:45.472Z,99186.59
2022-08-11T14:07:37.969Z,99186.69
2022-08-11T14:10:28.943Z,99151.06
2022-08-11T14:13:41.410Z,99156.72
2022-08-11T14:16:33.270Z,99154.31
2022-08-11T14:19:22.711Z,99147.53
2022-08-11T14:22:11.689Z,99149.59
2022-08-11T14:24:58.770Z,99151.16
2022-08-11T14:28:30.973Z,99120.09
2022-08-11T14:30:58.978Z,99121.44
2022-08-11T14:34:00.081Z,99132.38
2022-08-11T14:36:52.591Z,99142.91
2022-08-11T14:39:46.049Z,99126.66
2022-08-11T14:43:11.570Z,99108.66
2022-08-11T14:46:17.039Z,99130.03
2022-08-11T14:49:04.050Z,99119.13
2022-08-11T14:51:54.965Z,99118.41
2022-08-11T14:55:05.199Z,99131.53
2022-08-11T14:58:04.698Z,99118.28
2022-08-11T15:00:54.452Z,99097.53
2022-08-11T15:03:41.039Z,99114.00
2022-08-11T15:06:47.754Z,99083.47
2022-08-11T15:09:36.272Z,99118.88
2022-08-11T15:12:31.674Z,99099.13
2022-08-11T15:15:39.015Z,99078.38
2022-08-11T15:18:26.507Z,99094.88
2022-08-11T15:21:31.489Z,99108.22
2022-08-11T15:24:20.640Z,99098.03
2022-08-11T15:27:35.166Z,99107.47
2022-08-11T15:30:42.462Z,99083.47
2022-08-11T15:33:50.546Z,99053.41
2022-08-11T15:36:56.367Z,99051.63
2022-08-11T15:40:05.943Z,99095.00
2022-08-11T15:43:20.347Z,99090.78
2022-08-11T15:46:11.996Z,99082.03
2022-08-11T15:49:07.629Z,99075.00
2022-08-11T15:52:03.367Z,99077.19
2022-08-11T15:54:51.179Z,99049.31
2022-08-11T15:57:57.603Z,99058.78
2022-08-11T16:01:09.246Z,99039.38
2022-08-11T16:04:14.238Z,99021.03
2022-08-11T16:07:12.835Z,99067.47
2022-08-11T16:10:10.732Z,99080.34
2022-08-11T16:13:03.866Z,99081.78
2022-08-11T16:16:14.899Z,99068.69
2022-08-11T16:19:04.653Z,99060.78
2022-08-11T16:21:53.260Z,99057.28
2022-08-11T16:27:03.822Z,99077.88
2022-08-11T16:28:07.729Z,99066.59
2022-08-11T16:30:55.428Z,99058.34
2022-08-11T16:33:48.332Z,99042.66
2022-08-11T16:36:55.728Z,99041.00
2022-08-11T16:39:42.702Z,99053.00
2022-08-11T16:43:04.347Z,99068.16
2022-08-11T16:46:19.168Z,99063.53
2022-08-11T16:49:10.593Z,99063.16
2022-08-11T16:51:57.471Z,99040.50
2022-08-11T16:54:44.370Z,99016.78
2022-08-11T16:57:52.789Z,99037.91
2022-08-11T17:00:40.784Z,99021.75
2022-08-11T17:03:46.094Z,99065.00
2022-08-11T17:06:52.853Z,99046.66
2022-08-11T17:09:57.640Z,99056.50
2022-08-11T17:13:04.616Z,99052.09
2022-08-11T17:16:10.117Z,99035.50
2022-08-11T17:20:41.240Z,99053.47
2022-08-11T17:22:53.078Z,99038.13
2022-08-11T17:25:59.295Z,99026.38
2022-08-11T17:28:51.994Z,99010.50
2022-08-11T17:31:56.921Z,99022.75
2022-08-11T17:35:04.575Z,99018.47
2022-08-11T17:37:52.490Z,99017.88
2022-08-11T17:41:01.861Z,99007.91
2022-08-11T17:44:08.785Z,99036.63
2022-08-11T17:47:13.700Z,99023.31
2022-08-11T17:50:09.388Z,99021.97
2022-08-11T17:53:22.711Z,99013.88
2022-08-11T17:56:28.570Z,99028.25
2022-08-11T17:59:35.295Z,99037.00
2022-08-11T18:02:46.162Z,99027.75
2022-08-11T18:05:35.820Z,99024.34
2022-08-11T18:08:42.033Z,99044.66
2022-08-11T18:12:06.695Z,99025.22
2022-08-11T18:15:16.647Z,99022.81
2022-08-11T18:18:21.874Z,99009.94
2022-08-11T18:21:27.787Z,99056.59
2022-08-11T18:24:34.591Z,99035.78
2022-08-11T18:27:41.198Z,99062.03
2022-08-11T18:30:50.048Z,99044.22
2022-08-11T18:34:07.307Z,99059.34
2022-08-11T18:37:29.053Z,99074.16
2022-08-11T18:40:46.790Z,99072.94
2022-08-11T18:43:57.744Z,99049.84
2022-08-11T18:47:07.916Z,99074.59
2022-08-11T18:50:15.623Z,99053.94
2022-08-11T18:53:29.539Z,99080.16
2022-08-11T18:56:38.147Z,99068.63
2022-08-11T18:59:46.996Z,99088.06
2022-08-11T19:02:55.639Z,99093.13
2022-08-11T19:06:35.902Z,99082.50
2022-08-11T19:09:35.220Z,99098.31
2022-08-11T19:12:43.302Z,99106.75
2022-08-11T19:15:50.204Z,99080.81
2022-08-11T19:18:57.783Z,99094.28
2022-08-11T19:22:03.803Z,99112.09
2022-08-11T19:25:10.405Z,99108.25
2022-08-11T19:28:17.144Z,99087.59
2022-08-11T19:31:22.759Z,99067.75
2022-08-11T19:34:29.092Z,99086.03
2022-08-11T19:37:35.074Z,99088.28
2022-08-11T19:40:51.247Z,99125.22
2022-08-11T19:43:57.496Z,99083.25
2022-08-11T19:47:02.870Z,99102.63
2022-08-11T19:50:14.994Z,99104.44
2022-08-11T19:53:23.451Z,99101.38
2022-08-11T19:56:29.354Z,99082.84
2022-08-11T19:59:35.673Z,99105.78
2022-08-11T20:02:41.015Z,99099.91
2022-08-11T20:05:59.666Z,99096.28
2022-08-11T20:09:07.443Z,99114.94
2022-08-11T20:12:16.530Z,99118.75
2022-08-11T20:15:27.090Z,99074.03
2022-08-11T20:18:33.831Z,99108.00
2022-08-11T20:21:40.205Z,99081.94
2022-08-11T20:24:47.404Z,99127.75
2022-08-11T20:27:55.707Z,99110.50
2022-08-11T20:31:04.873Z,99136.06
2022-08-11T20:34:10.553Z,99109.66
2022-08-11T20:37:16.837Z,99115.31
2022-08-11T20:40:23.755Z,99115.63
2022-08-11T20:44:07.533Z,99091.19
2022-08-11T20:47:03.461Z,99122.59
2022-08-11T20:50:09.734Z,99120.34
2022-08-11T20:53:27.499Z,99089.88
2022-08-11T20:56:33.611Z,99142.66
2022-08-11T20:59:49.464Z,99110.06
2022-08-11T21:02:59.099Z,99153.34
2022-08-11T21:06:10.618Z,99156.22
2022-08-11T21:09:19.875Z,99135.13
2022-08-11T21:12:25.286Z,99143.28
2022-08-11T21:15:47.438Z,99144.34
2022-08-11T21:19:03.238Z,99145.50
2022-08-11T21:22:08.625Z,99147.50
2022-08-11T21:25:16.364Z,99132.16
2022-08-11T21:28:24.532Z,99161.56
2022-08-11T21:31:29.875Z,99165.56
2022-08-11T21:34:37.749Z,99146.69
2022-08-11T21:37:44.460Z,99152.28
2022-08-11T21:40:59.038Z,99128.38
2022-08-11T21:44:08.494Z,99155.03
2022-08-11T21:47:17.406Z,99172.53
2022-08-11T21:50:25.970Z,99129.91
2022-08-11T21:53:33.645Z,99156.53
2022-08-11T21:56:40.355Z,99095.66
2022-08-11T22:00:11.885Z,99157.91
2022-08-11T22:03:17.645Z,99128.91
2022-08-11T22:06:23.494Z,99137.84
2022-08-11T22:09:28.695Z,99160.06
2022-08-11T22:12:34.930Z,99153.09
2022-08-11T22:15:41.417Z,99133.72
2022-08-11T22:18:46.714Z,99138.28
2022-08-11T22:22:01.712Z,99129.13
2022-08-11T22:25:16.170Z,99094.00
2022-08-11T22:28:23.065Z,99110.56
2022-08-11T22:31:30.373Z,99136.50
2022-08-11T22:34:44.765Z,99139.09
2022-08-11T22:37:59.361Z,99153.09
2022-08-11T22:41:04.321Z,99116.34
2022-08-11T22:44:09.138Z,99131.91
2022-08-11T22:47:18.851Z,99140.47
2022-08-11T22:50:26.725Z,99149.22
2022-08-11T22:53:58.115Z,99150.34
2022-08-11T22:56:59.085Z,99129.97
2022-08-11T23:00:04.273Z,99155.72
2022-08-11T23:03:10.231Z,99114.13
2022-08-11T23:06:36.364Z,99155.25
2022-08-11T23:09:42.817Z,99109.94
2022-08-11T23:12:48.222Z,99133.34
2022-08-11T23:15:53.798Z,99161.81
2022-08-11T23:19:00.044Z,99160.41
2022-08-11T23:22:06.878Z,99157.09
2022-08-11T23:25:17.937Z,99122.75
2022-08-11T23:28:26.251Z,99103.88
2022-08-11T23:31:51.090Z,99166.84
2022-08-11T23:35:40.451Z,99145.38
2022-08-11T23:38:28.209Z,99118.59
2022-08-11T23:41:34.396Z,99114.56
2022-08-11T23:44:39.052Z,99156.03
2022-08-11T23:47:50.471Z,99120.69
2022-08-11T23:50:56.395Z,99140.66
2022-08-11T23:54:07.867Z,99171.84
2022-08-11T23:57:13.589Z,99153.06
